sensor_id;sensor_type;location;lat;lon;timestamp;P1;durP1;ratioP1;P2;durP2;ratioP2
22614;SDS011;11474;50.790;0.298;2023-04-25T00:01:44;27.15;;;6.05;;
22614;SDS011;11474;50.790;0.298;2023-04-25T00:04:10;26.42;;;6.15;;
22614;SDS011;11474;50.790;0.298;2023-04-25T00:06:36;19.00;;;5.93;;
22614;SDS011;11474;50.790;0.298;2023-04-25T00:09:03;22.52;;;5.28;;
22614;SDS011;11474;50.790;0.298;2023-04-25T00:11:32;23.85;;;5.78;;
22614;SDS011;11474;50.790;0.298;2023-04-25T00:13:58;20.55;;;5.03;;
22614;SDS011;11474;50.790;0.298;2023-04-25T00:16:27;22.67;;;5.70;;
22614;SDS011;11474;50.790;0.298;2023-04-25T00:18:53;23.00;;;5.20;;
22614;SDS011;11474;50.790;0.298;2023-04-25T00:21:20;19.02;;;6.35;;
22614;SDS011;11474;50.790;0.298;2023-04-25T00:23:47;20.90;;;5.70;;
22614;SDS011;11474;50.790;0.298;2023-04-25T00:26:13;22.75;;;5.60;;
22614;SDS011;11474;50.790;0.298;2023-04-25T00:28:39;22.48;;;5.68;;
22614;SDS011;11474;50.790;0.298;2023-04-25T00:31:06;25.48;;;5.50;;
22614;SDS011;11474;50.790;0.298;2023-04-25T00:33:32;21.73;;;5.57;;
22614;SDS011;11474;50.790;0.298;2023-04-25T00:35:58;22.23;;;5.82;;
22614;SDS011;11474;50.790;0.298;2023-04-25T00:38:24;20.33;;;5.53;;
22614;SDS011;11474;50.790;0.298;2023-04-25T00:40:50;22.55;;;5.70;;
22614;SDS011;11474;50.790;0.298;2023-04-25T00:43:17;24.25;;;5.47;;
22614;SDS011;11474;50.790;0.298;2023-04-25T00:45:44;19.13;;;5.75;;
22614;SDS011;11474;50.790;0.298;2023-04-25T00:48:13;27.27;;;5.53;;
22614;SDS011;11474;50.790;0.298;2023-04-25T00:50:39;24.43;;;5.93;;
22614;SDS011;11474;50.790;0.298;2023-04-25T00:53:06;25.35;;;6.10;;
22614;SDS011;11474;50.790;0.298;2023-04-25T00:55:32;19.80;;;5.43;;
22614;SDS011;11474;50.790;0.298;2023-04-25T00:58:01;23.48;;;5.97;;
22614;SDS011;11474;50.790;0.298;2023-04-25T01:00:27;22.30;;;5.80;;
22614;SDS011;11474;50.790;0.298;2023-04-25T01:02:53;26.50;;;6.10;;
22614;SDS011;11474;50.790;0.298;2023-04-25T01:05:19;23.02;;;5.90;;
22614;SDS011;11474;50.790;0.298;2023-04-25T01:07:45;21.90;;;6.00;;
22614;SDS011;11474;50.790;0.298;2023-04-25T01:10:12;24.20;;;6.25;;
22614;SDS011;11474;50.790;0.298;2023-04-25T01:12:38;28.98;;;6.35;;
22614;SDS011;11474;50.790;0.298;2023-04-25T01:15:04;22.42;;;5.90;;
22614;SDS011;11474;50.790;0.298;2023-04-25T01:17:30;25.95;;;6.28;;
22614;SDS011;11474;50.790;0.298;2023-04-25T01:19:57;24.90;;;6.10;;
22614;SDS011;11474;50.790;0.298;2023-04-25T01:22:23;27.60;;;6.53;;
22614;SDS011;11474;50.790;0.298;2023-04-25T01:24:49;34.33;;;5.97;;
22614;SDS011;11474;50.790;0.298;2023-04-25T01:27:15;33.13;;;6.25;;
22614;SDS011;11474;50.790;0.298;2023-04-25T01:29:42;30.88;;;6.78;;
22614;SDS011;11474;50.790;0.298;2023-04-25T01:32:08;23.83;;;6.32;;
22614;SDS011;11474;50.790;0.298;2023-04-25T01:34:34;23.77;;;6.38;;
22614;SDS011;11474;50.790;0.298;2023-04-25T01:37:00;22.52;;;5.63;;
22614;SDS011;11474;50.790;0.298;2023-04-25T01:39:29;25.63;;;6.93;;
22614;SDS011;11474;50.790;0.298;2023-04-25T01:41:55;23.92;;;6.25;;
22614;SDS011;11474;50.790;0.298;2023-04-25T01:44:22;24.67;;;6.13;;
22614;SDS011;11474;50.790;0.298;2023-04-25T01:46:48;30.60;;;6.75;;
22614;SDS011;11474;50.790;0.298;2023-04-25T01:49:14;31.23;;;6.78;;
22614;SDS011;11474;50.790;0.298;2023-04-25T01:51:40;25.40;;;5.57;;
22614;SDS011;11474;50.790;0.298;2023-04-25T01:54:07;33.58;;;6.97;;
22614;SDS011;11474;50.790;0.298;2023-04-25T01:56:33;26.60;;;6.28;;
22614;SDS011;11474;50.790;0.298;2023-04-25T01:59:02;21.45;;;5.97;;
22614;SDS011;11474;50.790;0.298;2023-04-25T02:01:31;27.88;;;5.10;;
22614;SDS011;11474;50.790;0.298;2023-04-25T02:03:57;25.15;;;6.03;;
22614;SDS011;11474;50.790;0.298;2023-04-25T02:06:23;22.05;;;5.47;;
22614;SDS011;11474;50.790;0.298;2023-04-25T02:08:49;18.48;;;4.68;;
22614;SDS011;11474;50.790;0.298;2023-04-25T02:11:15;31.27;;;5.47;;
22614;SDS011;11474;50.790;0.298;2023-04-25T02:13:41;24.33;;;5.50;;
22614;SDS011;11474;50.790;0.298;2023-04-25T02:16:07;19.48;;;5.55;;
22614;SDS011;11474;50.790;0.298;2023-04-25T02:18:33;30.23;;;5.70;;
22614;SDS011;11474;50.790;0.298;2023-04-25T02:21:02;26.90;;;4.93;;
22614;SDS011;11474;50.790;0.298;2023-04-25T02:23:28;22.10;;;5.17;;
22614;SDS011;11474;50.790;0.298;2023-04-25T02:25:55;32.72;;;6.72;;
22614;SDS011;11474;50.790;0.298;2023-04-25T02:28:23;24.13;;;4.82;;
22614;SDS011;11474;50.790;0.298;2023-04-25T02:30:49;23.20;;;5.25;;
22614;SDS011;11474;50.790;0.298;2023-04-25T02:33:15;25.73;;;5.25;;
22614;SDS011;11474;50.790;0.298;2023-04-25T02:35:42;30.15;;;6.30;;
22614;SDS011;11474;50.790;0.298;2023-04-25T02:38:07;25.70;;;5.23;;
22614;SDS011;11474;50.790;0.298;2023-04-25T02:40:34;27.77;;;5.63;;
22614;SDS011;11474;50.790;0.298;2023-04-25T02:43:00;25.52;;;5.38;;
22614;SDS011;11474;50.790;0.298;2023-04-25T02:45:26;24.20;;;4.75;;
22614;SDS011;11474;50.790;0.298;2023-04-25T02:47:52;26.25;;;4.93;;
22614;SDS011;11474;50.790;0.298;2023-04-25T02:50:18;25.80;;;5.22;;
22614;SDS011;11474;50.790;0.298;2023-04-25T02:52:44;22.27;;;5.07;;
22614;SDS011;11474;50.790;0.298;2023-04-25T02:55:11;21.95;;;4.80;;
22614;SDS011;11474;50.790;0.298;2023-04-25T02:57:38;26.52;;;5.47;;
22614;SDS011;11474;50.790;0.298;2023-04-25T03:00:04;24.88;;;5.55;;
22614;SDS011;11474;50.790;0.298;2023-04-25T03:02:30;23.90;;;5.18;;
22614;SDS011;11474;50.790;0.298;2023-04-25T03:04:56;24.65;;;4.75;;
22614;SDS011;11474;50.790;0.298;2023-04-25T03:07:23;27.65;;;4.80;;
22614;SDS011;11474;50.790;0.298;2023-04-25T03:09:49;25.95;;;4.90;;
22614;SDS011;11474;50.790;0.298;2023-04-25T03:12:15;26.10;;;4.75;;
22614;SDS011;11474;50.790;0.298;2023-04-25T03:14:41;22.00;;;5.15;;
22614;SDS011;11474;50.790;0.298;2023-04-25T03:17:07;23.25;;;4.95;;
22614;SDS011;11474;50.790;0.298;2023-04-25T03:19:33;20.30;;;4.85;;
22614;SDS011;11474;50.790;0.298;2023-04-25T03:21:59;28.02;;;5.13;;
22614;SDS011;11474;50.790;0.298;2023-04-25T03:24:25;24.05;;;4.63;;
22614;SDS011;11474;50.790;0.298;2023-04-25T03:26:52;23.15;;;5.15;;
22614;SDS011;11474;50.790;0.298;2023-04-25T03:29:18;25.38;;;6.15;;
22614;SDS011;11474;50.790;0.298;2023-04-25T03:31:44;28.55;;;4.90;;
22614;SDS011;11474;50.790;0.298;2023-04-25T03:34:10;19.55;;;5.20;;
22614;SDS011;11474;50.790;0.298;2023-04-25T03:36:36;17.98;;;4.30;;
22614;SDS011;11474;50.790;0.298;2023-04-25T03:39:02;22.42;;;4.55;;
22614;SDS011;11474;50.790;0.298;2023-04-25T03:41:28;22.70;;;5.10;;
22614;SDS011;11474;50.790;0.298;2023-04-25T03:43:55;22.85;;;4.68;;
22614;SDS011;11474;50.790;0.298;2023-04-25T03:46:21;22.83;;;4.57;;
22614;SDS011;11474;50.790;0.298;2023-04-25T03:48:47;23.53;;;4.73;;
22614;SDS011;11474;50.790;0.298;2023-04-25T03:51:13;24.50;;;5.20;;
22614;SDS011;11474;50.790;0.298;2023-04-25T03:53:39;29.30;;;5.32;;
22614;SDS011;11474;50.790;0.298;2023-04-25T03:59:09;20.73;;;5.40;;
22614;SDS011;11474;50.790;0.298;2023-04-25T04:01:35;26.38;;;5.20;;
22614;SDS011;11474;50.790;0.298;2023-04-25T04:04:01;26.63;;;6.03;;
22614;SDS011;11474;50.790;0.298;2023-04-25T04:06:27;24.58;;;4.75;;
22614;SDS011;11474;50.790;0.298;2023-04-25T04:08:53;26.52;;;5.80;;
22614;SDS011;11474;50.790;0.298;2023-04-25T04:11:20;19.58;;;4.90;;
22614;SDS011;11474;50.790;0.298;2023-04-25T04:13:46;21.00;;;4.90;;
22614;SDS011;11474;50.790;0.298;2023-04-25T04:16:13;24.90;;;5.55;;
22614;SDS011;11474;50.790;0.298;2023-04-25T04:18:39;23.77;;;4.85;;
22614;SDS011;11474;50.790;0.298;2023-04-25T04:21:05;22.50;;;5.07;;
22614;SDS011;11474;50.790;0.298;2023-04-25T04:23:31;23.20;;;5.10;;
22614;SDS011;11474;50.790;0.298;2023-04-25T04:25:57;23.58;;;5.10;;
22614;SDS011;11474;50.790;0.298;2023-04-25T04:28:23;18.63;;;5.72;;
22614;SDS011;11474;50.790;0.298;2023-04-25T04:30:50;24.95;;;6.00;;
22614;SDS011;11474;50.790;0.298;2023-04-25T04:33:17;26.65;;;5.65;;
22614;SDS011;11474;50.790;0.298;2023-04-25T04:35:48;26.30;;;5.82;;
22614;SDS011;11474;50.790;0.298;2023-04-25T04:38:17;19.92;;;5.20;;
22614;SDS011;11474;50.790;0.298;2023-04-25T04:40:43;21.60;;;4.50;;
22614;SDS011;11474;50.790;0.298;2023-04-25T04:43:09;25.45;;;5.13;;
22614;SDS011;11474;50.790;0.298;2023-04-25T04:45:36;28.80;;;5.70;;
22614;SDS011;11474;50.790;0.298;2023-04-25T04:48:05;21.27;;;5.00;;
22614;SDS011;11474;50.790;0.298;2023-04-25T04:50:31;26.90;;;5.15;;
22614;SDS011;11474;50.790;0.298;2023-04-25T04:52:58;18.85;;;4.18;;
22614;SDS011;11474;50.790;0.298;2023-04-25T04:55:24;20.25;;;4.60;;
22614;SDS011;11474;50.790;0.298;2023-04-25T04:57:50;23.23;;;4.93;;
22614;SDS011;11474;50.790;0.298;2023-04-25T05:00:16;20.67;;;5.45;;
22614;SDS011;11474;50.790;0.298;2023-04-25T05:02:43;24.52;;;5.30;;
22614;SDS011;11474;50.790;0.298;2023-04-25T05:05:09;22.55;;;5.28;;
22614;SDS011;11474;50.790;0.298;2023-04-25T05:07:35;30.30;;;5.00;;
22614;SDS011;11474;50.790;0.298;2023-04-25T05:10:01;20.13;;;5.28;;
22614;SDS011;11474;50.790;0.298;2023-04-25T05:12:27;22.13;;;4.80;;
22614;SDS011;11474;50.790;0.298;2023-04-25T05:14:53;21.65;;;5.05;;
22614;SDS011;11474;50.790;0.298;2023-04-25T05:17:19;27.58;;;5.30;;
22614;SDS011;11474;50.790;0.298;2023-04-25T05:19:45;25.00;;;5.27;;
22614;SDS011;11474;50.790;0.298;2023-04-25T05:22:11;24.45;;;6.28;;
22614;SDS011;11474;50.790;0.298;2023-04-25T05:24:37;18.13;;;5.13;;
22614;SDS011;11474;50.790;0.298;2023-04-25T05:27:04;24.45;;;5.40;;
22614;SDS011;11474;50.790;0.298;2023-04-25T05:29:30;28.42;;;4.97;;
22614;SDS011;11474;50.790;0.298;2023-04-25T05:31:56;18.83;;;5.40;;
22614;SDS011;11474;50.790;0.298;2023-04-25T05:34:22;19.05;;;5.05;;
22614;SDS011;11474;50.790;0.298;2023-04-25T05:36:48;24.02;;;4.78;;
22614;SDS011;11474;50.790;0.298;2023-04-25T05:39:15;18.52;;;4.50;;
22614;SDS011;11474;50.790;0.298;2023-04-25T05:41:42;20.07;;;4.57;;
22614;SDS011;11474;50.790;0.298;2023-04-25T05:44:08;16.20;;;4.22;;
22614;SDS011;11474;50.790;0.298;2023-04-25T05:46:35;15.15;;;4.10;;
22614;SDS011;11474;50.790;0.298;2023-04-25T05:49:01;17.88;;;4.50;;
22614;SDS011;11474;50.790;0.298;2023-04-25T05:51:27;21.70;;;4.50;;
22614;SDS011;11474;50.790;0.298;2023-04-25T05:53:53;23.02;;;4.40;;
22614;SDS011;11474;50.790;0.298;2023-04-25T05:56:19;21.42;;;4.22;;
22614;SDS011;11474;50.790;0.298;2023-04-25T05:58:45;17.38;;;4.40;;
22614;SDS011;11474;50.790;0.298;2023-04-25T06:01:12;20.80;;;4.47;;
22614;SDS011;11474;50.790;0.298;2023-04-25T06:03:38;18.77;;;4.15;;
22614;SDS011;11474;50.790;0.298;2023-04-25T06:06:04;17.60;;;4.25;;
22614;SDS011;11474;50.790;0.298;2023-04-25T06:08:30;20.13;;;4.78;;
22614;SDS011;11474;50.790;0.298;2023-04-25T06:10:56;16.83;;;4.32;;
22614;SDS011;11474;50.790;0.298;2023-04-25T06:13:22;21.80;;;4.83;;
22614;SDS011;11474;50.790;0.298;2023-04-25T06:15:48;19.63;;;4.32;;
22614;SDS011;11474;50.790;0.298;2023-04-25T06:18:14;19.08;;;4.30;;
22614;SDS011;11474;50.790;0.298;2023-04-25T06:20:40;16.48;;;4.32;;
22614;SDS011;11474;50.790;0.298;2023-04-25T06:23:06;15.15;;;4.05;;
22614;SDS011;11474;50.790;0.298;2023-04-25T06:25:32;15.82;;;4.03;;
22614;SDS011;11474;50.790;0.298;2023-04-25T06:27:58;17.80;;;4.32;;
22614;SDS011;11474;50.790;0.298;2023-04-25T06:30:24;17.00;;;4.17;;
22614;SDS011;11474;50.790;0.298;2023-04-25T06:32:53;20.52;;;4.00;;
22614;SDS011;11474;50.790;0.298;2023-04-25T06:35:19;17.73;;;4.47;;
22614;SDS011;11474;50.790;0.298;2023-04-25T06:37:46;19.10;;;4.00;;
22614;SDS011;11474;50.790;0.298;2023-04-25T06:40:12;22.77;;;4.15;;
22614;SDS011;11474;50.790;0.298;2023-04-25T06:42:38;18.38;;;4.32;;
22614;SDS011;11474;50.790;0.298;2023-04-25T06:45:04;15.57;;;3.95;;
22614;SDS011;11474;50.790;0.298;2023-04-25T06:47:30;19.05;;;3.97;;
22614;SDS011;11474;50.790;0.298;2023-04-25T06:49:56;15.75;;;3.67;;
22614;SDS011;11474;50.790;0.298;2023-04-25T06:52:22;14.05;;;4.00;;
22614;SDS011;11474;50.790;0.298;2023-04-25T06:54:48;17.58;;;4.03;;
22614;SDS011;11474;50.790;0.298;2023-04-25T06:57:14;19.20;;;4.23;;
22614;SDS011;11474;50.790;0.298;2023-04-25T06:59:40;14.15;;;3.42;;
22614;SDS011;11474;50.790;0.298;2023-04-25T07:02:06;16.70;;;3.40;;
22614;SDS011;11474;50.790;0.298;2023-04-25T07:04:32;16.98;;;3.38;;
22614;SDS011;11474;50.790;0.298;2023-04-25T07:06:59;16.60;;;3.42;;
22614;SDS011;11474;50.790;0.298;2023-04-25T07:09:27;15.02;;;3.40;;
22614;SDS011;11474;50.790;0.298;2023-04-25T07:11:53;20.05;;;3.95;;
22614;SDS011;11474;50.790;0.298;2023-04-25T07:14:19;14.27;;;3.50;;
22614;SDS011;11474;50.790;0.298;2023-04-25T07:16:46;17.40;;;3.60;;
22614;SDS011;11474;50.790;0.298;2023-04-25T07:19:12;17.40;;;3.20;;
22614;SDS011;11474;50.790;0.298;2023-04-25T07:21:38;12.83;;;3.43;;
22614;SDS011;11474;50.790;0.298;2023-04-25T07:24:04;18.75;;;3.65;;
22614;SDS011;11474;50.790;0.298;2023-04-25T07:26:30;19.13;;;3.60;;
22614;SDS011;11474;50.790;0.298;2023-04-25T07:28:56;17.50;;;3.72;;
22614;SDS011;11474;50.790;0.298;2023-04-25T07:31:22;19.08;;;3.20;;
22614;SDS011;11474;50.790;0.298;2023-04-25T07:33:48;16.27;;;3.80;;
22614;SDS011;11474;50.790;0.298;2023-04-25T07:36:15;17.20;;;3.67;;
22614;SDS011;11474;50.790;0.298;2023-04-25T07:38:41;16.58;;;3.53;;
22614;SDS011;11474;50.790;0.298;2023-04-25T07:41:07;18.60;;;3.67;;
22614;SDS011;11474;50.790;0.298;2023-04-25T07:43:33;15.70;;;3.40;;
22614;SDS011;11474;50.790;0.298;2023-04-25T07:45:59;16.25;;;3.55;;
22614;SDS011;11474;50.790;0.298;2023-04-25T07:48:25;12.80;;;3.50;;
22614;SDS011;11474;50.790;0.298;2023-04-25T07:50:51;18.70;;;3.47;;
22614;SDS011;11474;50.790;0.298;2023-04-25T07:53:17;18.30;;;3.35;;
22614;SDS011;11474;50.790;0.298;2023-04-25T07:55:43;12.18;;;3.20;;
22614;SDS011;11474;50.790;0.298;2023-04-25T07:58:11;15.30;;;3.35;;
22614;SDS011;11474;50.790;0.298;2023-04-25T08:00:37;14.13;;;2.95;;
22614;SDS011;11474;50.790;0.298;2023-04-25T08:03:03;18.42;;;3.22;;
22614;SDS011;11474;50.790;0.298;2023-04-25T08:05:29;12.95;;;3.17;;
22614;SDS011;11474;50.790;0.298;2023-04-25T08:07:55;15.13;;;3.15;;
22614;SDS011;11474;50.790;0.298;2023-04-25T08:10:22;16.48;;;3.55;;
22614;SDS011;11474;50.790;0.298;2023-04-25T08:12:48;16.95;;;3.75;;
22614;SDS011;11474;50.790;0.298;2023-04-25T08:15:14;16.35;;;3.90;;
22614;SDS011;11474;50.790;0.298;2023-04-25T08:17:40;16.85;;;3.40;;
22614;SDS011;11474;50.790;0.298;2023-04-25T08:20:08;14.65;;;3.03;;
22614;SDS011;11474;50.790;0.298;2023-04-25T08:22:35;14.80;;;2.80;;
22614;SDS011;11474;50.790;0.298;2023-04-25T08:25:01;15.85;;;3.05;;
22614;SDS011;11474;50.790;0.298;2023-04-25T08:27:28;12.65;;;2.95;;
22614;SDS011;11474;50.790;0.298;2023-04-25T08:29:54;12.20;;;3.05;;
22614;SDS011;11474;50.790;0.298;2023-04-25T08:32:20;17.88;;;3.30;;
22614;SDS011;11474;50.790;0.298;2023-04-25T08:34:46;15.30;;;3.38;;
22614;SDS011;11474;50.790;0.298;2023-04-25T08:37:12;17.98;;;3.35;;
22614;SDS011;11474;50.790;0.298;2023-04-25T08:39:38;12.27;;;3.13;;
22614;SDS011;11474;50.790;0.298;2023-04-25T08:42:07;13.82;;;3.05;;
22614;SDS011;11474;50.790;0.298;2023-04-25T08:44:34;18.42;;;3.22;;
22614;SDS011;11474;50.790;0.298;2023-04-25T08:47:03;11.15;;;2.92;;
22614;SDS011;11474;50.790;0.298;2023-04-25T08:49:33;12.27;;;2.80;;
22614;SDS011;11474;50.790;0.298;2023-04-25T08:52:00;13.68;;;3.03;;
22614;SDS011;11474;50.790;0.298;2023-04-25T08:54:29;18.25;;;3.08;;
22614;SDS011;11474;50.790;0.298;2023-04-25T08:56:56;18.35;;;3.20;;
22614;SDS011;11474;50.790;0.298;2023-04-25T08:59:23;17.75;;;3.97;;
22614;SDS011;11474;50.790;0.298;2023-04-25T09:01:49;13.75;;;3.00;;
22614;SDS011;11474;50.790;0.298;2023-04-25T09:04:16;12.45;;;3.28;;
22614;SDS011;11474;50.790;0.298;2023-04-25T09:06:44;12.73;;;2.95;;
22614;SDS011;11474;50.790;0.298;2023-04-25T09:09:10;11.73;;;2.70;;
22614;SDS011;11474;50.790;0.298;2023-04-25T09:11:37;11.73;;;3.15;;
22614;SDS011;11474;50.790;0.298;2023-04-25T09:14:10;14.38;;;3.10;;
22614;SDS011;11474;50.790;0.298;2023-04-25T09:16:43;15.75;;;3.10;;
22614;SDS011;11474;50.790;0.298;2023-04-25T09:19:23;16.00;;;3.10;;
22614;SDS011;11474;50.790;0.298;2023-04-25T09:21:50;12.90;;;2.90;;
22614;SDS011;11474;50.790;0.298;2023-04-25T09:24:20;17.80;;;3.20;;
22614;SDS011;11474;50.790;0.298;2023-04-25T09:26:56;14.10;;;2.80;;
22614;SDS011;11474;50.790;0.298;2023-04-25T09:29:28;13.40;;;2.88;;
22614;SDS011;11474;50.790;0.298;2023-04-25T09:32:06;13.02;;;2.90;;
22614;SDS011;11474;50.790;0.298;2023-04-25T09:34:40;12.82;;;3.15;;
22614;SDS011;11474;50.790;0.298;2023-04-25T09:37:07;13.77;;;3.17;;
22614;SDS011;11474;50.790;0.298;2023-04-25T09:39:34;10.18;;;2.65;;
22614;SDS011;11474;50.790;0.298;2023-04-25T09:42:00;13.73;;;3.00;;
22614;SDS011;11474;50.790;0.298;2023-04-25T09:44:26;11.32;;;2.50;;
22614;SDS011;11474;50.790;0.298;2023-04-25T09:46:52;18.15;;;2.72;;
22614;SDS011;11474;50.790;0.298;2023-04-25T09:49:22;12.68;;;2.70;;
22614;SDS011;11474;50.790;0.298;2023-04-25T09:51:58;14.57;;;3.25;;
22614;SDS011;11474;50.790;0.298;2023-04-25T09:54:25;15.85;;;2.85;;
22614;SDS011;11474;50.790;0.298;2023-04-25T09:56:52;13.63;;;3.00;;
22614;SDS011;11474;50.790;0.298;2023-04-25T09:59:19;12.52;;;3.05;;
22614;SDS011;11474;50.790;0.298;2023-04-25T10:01:46;11.77;;;2.67;;
22614;SDS011;11474;50.790;0.298;2023-04-25T10:04:13;13.32;;;2.95;;
22614;SDS011;11474;50.790;0.298;2023-04-25T10:06:41;9.50;;;2.78;;
22614;SDS011;11474;50.790;0.298;2023-04-25T10:09:08;14.15;;;2.58;;
22614;SDS011;11474;50.790;0.298;2023-04-25T10:11:34;12.55;;;3.13;;
22614;SDS011;11474;50.790;0.298;2023-04-25T10:14:01;10.88;;;2.75;;
22614;SDS011;11474;50.790;0.298;2023-04-25T10:16:27;12.40;;;3.10;;
22614;SDS011;11474;50.790;0.298;2023-04-25T10:18:54;13.48;;;2.75;;
22614;SDS011;11474;50.790;0.298;2023-04-25T10:21:20;14.43;;;3.00;;
22614;SDS011;11474;50.790;0.298;2023-04-25T10:23:48;12.85;;;2.83;;
22614;SDS011;11474;50.790;0.298;2023-04-25T10:26:15;5.72;;;2.08;;
22614;SDS011;11474;50.790;0.298;2023-04-25T10:28:57;10.32;;;2.30;;
22614;SDS011;11474;50.790;0.298;2023-04-25T10:31:23;11.75;;;2.45;;
22614;SDS011;11474;50.790;0.298;2023-04-25T10:33:49;8.52;;;2.13;;
22614;SDS011;11474;50.790;0.298;2023-04-25T10:36:20;10.45;;;2.40;;
22614;SDS011;11474;50.790;0.298;2023-04-25T10:38:47;10.63;;;2.10;;
22614;SDS011;11474;50.790;0.298;2023-04-25T10:41:13;7.05;;;2.10;;
22614;SDS011;11474;50.790;0.298;2023-04-25T10:46:39;10.13;;;2.60;;
22614;SDS011;11474;50.790;0.298;2023-04-25T10:49:01;8.52;;;2.17;;
22614;SDS011;11474;50.790;0.298;2023-04-25T10:51:33;5.05;;;1.90;;
22614;SDS011;11474;50.790;0.298;2023-04-25T10:54:03;8.90;;;2.30;;
22614;SDS011;11474;50.790;0.298;2023-04-25T10:56:33;9.48;;;2.35;;
22614;SDS011;11474;50.790;0.298;2023-04-25T10:59:09;7.80;;;2.13;;
22614;SDS011;11474;50.790;0.298;2023-04-25T11:01:36;7.53;;;2.08;;
22614;SDS011;11474;50.790;0.298;2023-04-25T11:04:03;9.38;;;2.40;;
22614;SDS011;11474;50.790;0.298;2023-04-25T11:06:33;8.30;;;1.98;;
22614;SDS011;11474;50.790;0.298;2023-04-25T11:09:02;8.25;;;2.45;;
22614;SDS011;11474;50.790;0.298;2023-04-25T11:11:28;10.82;;;2.50;;
22614;SDS011;11474;50.790;0.298;2023-04-25T11:13:55;7.57;;;2.30;;
22614;SDS011;11474;50.790;0.298;2023-04-25T11:16:23;7.95;;;2.35;;
22614;SDS011;11474;50.790;0.298;2023-04-25T11:18:50;7.97;;;2.30;;
22614;SDS011;11474;50.790;0.298;2023-04-25T11:21:16;10.53;;;2.43;;
22614;SDS011;11474;50.790;0.298;2023-04-25T11:23:44;9.95;;;2.40;;
22614;SDS011;11474;50.790;0.298;2023-04-25T11:26:10;10.65;;;2.30;;
22614;SDS011;11474;50.790;0.298;2023-04-25T11:28:36;11.18;;;2.50;;
22614;SDS011;11474;50.790;0.298;2023-04-25T11:31:03;9.48;;;2.38;;
22614;SDS011;11474;50.790;0.298;2023-04-25T11:33:30;8.50;;;2.20;;
22614;SDS011;11474;50.790;0.298;2023-04-25T11:35:56;8.73;;;2.33;;
22614;SDS011;11474;50.790;0.298;2023-04-25T11:38:22;6.03;;;1.98;;
22614;SDS011;11474;50.790;0.298;2023-04-25T11:40:49;10.10;;;2.42;;
22614;SDS011;11474;50.790;0.298;2023-04-25T11:43:16;7.50;;;2.33;;
22614;SDS011;11474;50.790;0.298;2023-04-25T11:45:45;6.38;;;2.20;;
22614;SDS011;11474;50.790;0.298;2023-04-25T11:48:12;9.48;;;2.30;;
22614;SDS011;11474;50.790;0.298;2023-04-25T11:50:39;9.35;;;2.17;;
22614;SDS011;11474;50.790;0.298;2023-04-25T11:53:05;8.00;;;2.45;;
22614;SDS011;11474;50.790;0.298;2023-04-25T11:55:32;8.90;;;2.35;;
22614;SDS011;11474;50.790;0.298;2023-04-25T11:57:59;9.30;;;2.20;;
22614;SDS011;11474;50.790;0.298;2023-04-25T12:00:25;11.15;;;2.33;;
22614;SDS011;11474;50.790;0.298;2023-04-25T12:02:53;10.50;;;2.17;;
22614;SDS011;11474;50.790;0.298;2023-04-25T12:05:19;6.93;;;2.00;;
22614;SDS011;11474;50.790;0.298;2023-04-25T12:07:46;9.82;;;2.80;;
22614;SDS011;11474;50.790;0.298;2023-04-25T12:10:13;11.07;;;2.47;;
22614;SDS011;11474;50.790;0.298;2023-04-25T12:12:43;11.40;;;2.53;;
22614;SDS011;11474;50.790;0.298;2023-04-25T12:15:13;8.17;;;2.60;;
22614;SDS011;11474;50.790;0.298;2023-04-25T12:17:48;8.95;;;2.10;;
22614;SDS011;11474;50.790;0.298;2023-04-25T12:20:16;8.73;;;2.20;;
22614;SDS011;11474;50.790;0.298;2023-04-25T12:22:44;8.27;;;2.17;;
22614;SDS011;11474;50.790;0.298;2023-04-25T12:28:10;8.90;;;2.20;;
22614;SDS011;11474;50.790;0.298;2023-04-25T12:33:22;11.50;;;3.03;;
22614;SDS011;11474;50.790;0.298;2023-04-25T12:35:48;5.97;;;2.20;;
22614;SDS011;11474;50.790;0.298;2023-04-25T12:38:27;10.57;;;2.40;;
22614;SDS011;11474;50.790;0.298;2023-04-25T12:40:57;7.75;;;2.40;;
22614;SDS011;11474;50.790;0.298;2023-04-25T12:43:23;10.45;;;2.08;;
22614;SDS011;11474;50.790;0.298;2023-04-25T12:45:53;6.00;;;1.80;;
22614;SDS011;11474;50.790;0.298;2023-04-25T12:48:20;11.00;;;2.45;;
22614;SDS011;11474;50.790;0.298;2023-04-25T12:50:46;7.78;;;2.10;;
22614;SDS011;11474;50.790;0.298;2023-04-25T12:53:17;8.32;;;2.30;;
22614;SDS011;11474;50.790;0.298;2023-04-25T12:55:44;8.50;;;2.25;;
22614;SDS011;11474;50.790;0.298;2023-04-25T12:58:16;10.52;;;2.33;;
22614;SDS011;11474;50.790;0.298;2023-04-25T13:00:42;8.10;;;2.30;;
22614;SDS011;11474;50.790;0.298;2023-04-25T13:03:09;11.65;;;2.15;;
22614;SDS011;11474;50.790;0.298;2023-04-25T13:05:36;9.23;;;2.40;;
22614;SDS011;11474;50.790;0.298;2023-04-25T13:08:02;16.15;;;2.60;;
22614;SDS011;11474;50.790;0.298;2023-04-25T13:10:29;7.78;;;2.28;;
22614;SDS011;11474;50.790;0.298;2023-04-25T13:12:55;8.30;;;2.03;;
22614;SDS011;11474;50.790;0.298;2023-04-25T13:15:22;10.07;;;2.15;;
22614;SDS011;11474;50.790;0.298;2023-04-25T13:17:48;10.73;;;2.55;;
22614;SDS011;11474;50.790;0.298;2023-04-25T13:20:14;8.70;;;2.20;;
22614;SDS011;11474;50.790;0.298;2023-04-25T13:22:41;7.53;;;2.10;;
22614;SDS011;11474;50.790;0.298;2023-04-25T13:25:08;10.77;;;2.37;;
22614;SDS011;11474;50.790;0.298;2023-04-25T13:27:34;6.90;;;2.10;;
22614;SDS011;11474;50.790;0.298;2023-04-25T13:30:01;8.82;;;2.05;;
22614;SDS011;11474;50.790;0.298;2023-04-25T13:32:32;10.93;;;2.15;;
22614;SDS011;11474;50.790;0.298;2023-04-25T13:34:59;9.73;;;2.33;;
22614;SDS011;11474;50.790;0.298;2023-04-25T13:37:25;12.33;;;2.23;;
22614;SDS011;11474;50.790;0.298;2023-04-25T13:39:51;14.02;;;2.15;;
22614;SDS011;11474;50.790;0.298;2023-04-25T13:42:18;7.85;;;2.08;;
22614;SDS011;11474;50.790;0.298;2023-04-25T13:44:44;9.52;;;2.00;;
22614;SDS011;11474;50.790;0.298;2023-04-25T13:47:11;7.07;;;2.65;;
22614;SDS011;11474;50.790;0.298;2023-04-25T13:49:37;10.07;;;2.40;;
22614;SDS011;11474;50.790;0.298;2023-04-25T13:52:03;9.90;;;2.75;;
22614;SDS011;11474;50.790;0.298;2023-04-25T13:54:29;10.70;;;2.58;;
22614;SDS011;11474;50.790;0.298;2023-04-25T13:56:55;11.40;;;2.50;;
22614;SDS011;11474;50.790;0.298;2023-04-25T13:59:24;10.52;;;2.42;;
22614;SDS011;11474;50.790;0.298;2023-04-25T14:01:51;9.20;;;2.40;;
22614;SDS011;11474;50.790;0.298;2023-04-25T14:04:17;8.45;;;2.15;;
22614;SDS011;11474;50.790;0.298;2023-04-25T14:06:43;10.50;;;2.53;;
22614;SDS011;11474;50.790;0.298;2023-04-25T14:09:09;7.43;;;2.35;;
22614;SDS011;11474;50.790;0.298;2023-04-25T14:11:38;9.38;;;2.38;;
22614;SDS011;11474;50.790;0.298;2023-04-25T14:14:04;5.97;;;1.98;;
22614;SDS011;11474;50.790;0.298;2023-04-25T14:16:30;10.73;;;2.22;;
22614;SDS011;11474;50.790;0.298;2023-04-25T14:19:00;10.07;;;2.35;;
22614;SDS011;11474;50.790;0.298;2023-04-25T14:21:26;9.38;;;2.20;;
22614;SDS011;11474;50.790;0.298;2023-04-25T14:23:53;10.20;;;2.00;;
22614;SDS011;11474;50.790;0.298;2023-04-25T14:26:19;9.93;;;2.15;;
22614;SDS011;11474;50.790;0.298;2023-04-25T14:28:45;13.60;;;2.53;;
22614;SDS011;11474;50.790;0.298;2023-04-25T14:31:11;14.68;;;2.30;;
22614;SDS011;11474;50.790;0.298;2023-04-25T14:33:38;12.40;;;2.20;;
22614;SDS011;11474;50.790;0.298;2023-04-25T14:36:07;10.65;;;3.05;;
22614;SDS011;11474;50.790;0.298;2023-04-25T14:38:33;8.73;;;2.25;;
22614;SDS011;11474;50.790;0.298;2023-04-25T14:40:59;9.23;;;2.25;;
22614;SDS011;11474;50.790;0.298;2023-04-25T14:43:26;11.18;;;2.67;;
22614;SDS011;11474;50.790;0.298;2023-04-25T14:45:52;15.68;;;2.67;;